Time;durP1;ratioP1;P1;durP2;ratioP2;P2;SDS_P1;SDS_P2;PMS_P1;PMS_P2;Temp;Humidity;BMP_temperature;BMP_pressure;BME280_temperature;BME280_humidity;BME280_pressure;Samples;Min_cycle;Max_cycle;Signal;HPM_P1;HPM_P2
2023/09/27 00:00:25;;;;;;;9.57;1.85;;;13.50;99.90;;;;;;4995130;28;20661;-76
2023/09/27 00:02:52;;;;;;;9.88;1.80;;;13.50;99.90;;;;;;4993886;28;20199;-76
2023/09/27 00:05:19;;;;;;;10.05;2.00;;;;;;;;;;4995052;28;20179;-77
2023/09/27 00:07:44;;;;;;;9.38;1.83;;;13.40;99.90;;;;;;4993869;28;20229;-76
2023/09/27 00:10:11;;;;;;;7.85;1.70;;;13.60;99.90;;;;;;4994893;28;20179;-76
2023/09/27 00:12:38;;;;;;;10.13;2.33;;;13.50;99.90;;;;;;4995163;28;20654;-77
2023/09/27 00:15:06;;;;;;;8.30;1.58;;;13.70;99.90;;;;;;4995013;28;20172;-77
2023/09/27 00:17:31;;;;;;;13.52;1.83;;;13.50;99.90;;;;;;4994936;28;20638;-76
2023/09/27 00:19:57;;;;;;;8.63;1.83;;;;;;;;;;4994763;28;20183;-76
2023/09/27 00:22:27;;;;;;;9.60;2.38;;;13.60;99.90;;;;;;4994755;28;20171;-76
2023/09/27 00:24:52;;;;;;;11.98;1.90;;;13.60;99.90;;;;;;4993484;28;20537;-76
2023/09/27 00:27:18;;;;;;;13.75;1.80;;;13.40;99.90;;;;;;4993641;28;20183;-76
2023/09/27 00:29:45;;;;;;;7.20;2.13;;;;;;;;;;4994792;28;20187;-76
2023/09/27 00:32:11;;;;;;;9.90;2.22;;;;;;;;;;4993383;28;20175;-76
2023/09/27 00:34:37;;;;;;;6.32;1.50;;;13.30;99.90;;;;;;4994313;28;20259;-76
2023/09/27 00:37:02;;;;;;;8.77;1.73;;;13.70;99.90;;;;;;4994541;28;20214;-76
2023/09/27 00:39:28;;;;;;;11.43;2.00;;;13.40;99.90;;;;;;4994352;28;20262;-76
2023/09/27 00:41:54;;;;;;;9.32;1.90;;;13.60;99.90;;;;;;4994416;28;20586;-76
2023/09/27 00:44:20;;;;;;;9.27;1.63;;;13.40;99.90;;;;;;4994498;28;20226;-76
2023/09/27 00:46:46;;;;;;;13.50;2.10;;;13.50;99.90;;;;;;4994396;28;20175;-76
2023/09/27 00:49:14;;;;;;;15.35;2.30;;;13.50;99.90;;;;;;4993998;28;20182;-76
2023/09/27 00:51:41;;;;;;;8.60;2.00;;;13.40;99.90;;;;;;4994270;28;20172;-76
2023/09/27 00:54:08;;;;;;;15.07;2.53;;;13.50;99.90;;;;;;4994203;28;20203;-76
2023/09/27 00:56:35;;;;;;;12.07;2.05;;;13.30;99.90;;;;;;4994271;28;20251;-76
2023/09/27 00:59:01;;;;;;;9.80;1.65;;;13.60;99.90;;;;;;4993832;28;20187;-75
2023/09/27 01:01:27;;;;;;;10.15;1.95;;;13.40;99.90;;;;;;4994282;28;20183;-76
2023/09/27 01:03:53;;;;;;;6.55;1.77;;;13.30;99.90;;;;;;4993927;28;20213;-76
2023/09/27 01:06:19;;;;;;;12.85;1.63;;;13.30;99.90;;;;;;4993956;28;20539;-75
2023/09/27 01:08:45;;;;;;;11.02;1.88;;;13.30;99.90;;;;;;4994115;28;20175;-75
2023/09/27 01:11:11;;;;;;;11.43;2.10;;;;;;;;;;4993905;28;20195;-76
2023/09/27 01:13:38;;;;;;;7.85;1.77;;;13.30;99.90;;;;;;4993973;28;20206;-75
2023/09/27 01:16:04;;;;;;;14.57;2.08;;;13.30;99.90;;;;;;4993796;28;20175;-76
2023/09/27 01:18:30;;;;;;;10.27;2.33;;;13.20;99.90;;;;;;4993773;28;20210;-77
2023/09/27 01:20:56;;;;;;;8.65;1.52;;;;;;;;;;4993665;28;20202;-76
2023/09/27 01:23:22;;;;;;;11.30;1.90;;;13.40;99.90;;;;;;4993741;28;20218;-76
2023/09/27 01:25:54;;;;;;;6.10;1.55;;;13.20;99.90;;;;;;4993889;28;20167;-77
2023/09/27 01:28:21;;;;;;;8.60;1.77;;;13.40;99.90;;;;;;4993486;28;20179;-77
2023/09/27 01:30:47;;;;;;;11.80;2.10;;;13.50;99.90;;;;;;4996341;28;20639;-77
2023/09/27 01:33:13;;;;;;;9.50;2.13;;;13.50;99.90;;;;;;4995442;28;20210;-76
2023/09/27 01:35:40;;;;;;;10.95;1.83;;;13.40;99.90;;;;;;4996227;28;20171;-76
2023/09/27 01:38:07;;;;;;;12.55;1.70;;;13.50;99.90;;;;;;4996414;28;20179;-76
2023/09/27 01:40:36;;;;;;;9.48;1.67;;;13.50;99.90;;;;;;4996391;28;20393;-77
2023/09/27 01:43:02;;;;;;;15.70;1.52;;;13.50;99.90;;;;;;4993616;28;20215;-76
2023/09/27 01:45:29;;;;;;;7.80;2.42;;;13.40;99.90;;;;;;4993205;28;20186;-76
2023/09/27 01:47:55;;;;;;;10.68;1.83;;;13.40;99.90;;;;;;4993290;28;20186;-76
2023/09/27 01:50:24;;;;;;;8.88;2.00;;;13.50;99.90;;;;;;4993126;28;20198;-76
2023/09/27 01:52:56;;;;;;;9.63;1.85;;;13.50;99.90;;;;;;4993013;28;20213;-76
2023/09/27 01:55:23;;;;;;;10.52;2.00;;;13.40;99.90;;;;;;4993169;28;20167;-76
2023/09/27 01:57:48;;;;;;;11.80;2.28;;;13.50;99.90;;;;;;4993113;28;20176;-76
2023/09/27 02:00:16;;;;;;;9.82;2.10;;;13.30;99.90;;;;;;4992433;28;20230;-76
2023/09/27 02:02:43;;;;;;;8.15;2.05;;;13.30;99.90;;;;;;4992745;28;20207;-76
2023/09/27 02:05:10;;;;;;;13.20;1.70;;;13.40;99.90;;;;;;4992948;28;20518;-76
2023/09/27 02:07:39;;;;;;;11.77;1.73;;;13.60;99.90;;;;;;4991001;28;20276;-76
2023/09/27 02:10:09;;;;;;;11.60;2.08;;;13.70;99.90;;;;;;4992332;28;20177;-76
2023/09/27 02:12:36;;;;;;;6.63;2.17;;;;;;;;;;4991421;28;20610;-76
2023/09/27 02:15:04;;;;;;;12.50;1.73;;;13.70;99.90;;;;;;4992518;28;20175;-76
2023/09/27 02:17:29;;;;;;;10.45;1.92;;;13.30;99.90;;;;;;4992914;28;20274;-76
2023/09/27 02:19:55;;;;;;;10.90;1.80;;;13.50;99.90;;;;;;4991328;28;20713;-76
2023/09/27 02:22:22;;;;;;;5.25;1.55;;;13.30;99.90;;;;;;4992575;28;20171;-75
2023/09/27 02:24:48;;;;;;;10.77;2.25;;;13.20;99.90;;;;;;4984540;28;20642;-76
2023/09/27 02:27:14;;;;;;;12.40;2.10;;;13.30;99.90;;;;;;4979298;28;20199;-76
2023/09/27 02:29:41;;;;;;;7.38;1.52;;;13.00;99.90;;;;;;4984822;28;20176;-76
2023/09/27 02:32:07;;;;;;;9.48;1.52;;;;;;;;;;4972949;28;20164;-76
2023/09/27 02:34:33;;;;;;;10.98;1.92;;;13.20;99.90;;;;;;4986494;28;20708;-75
2023/09/27 02:37:00;;;;;;;7.22;2.00;;;12.70;99.90;;;;;;4992319;28;20278;-75
2023/09/27 02:39:26;;;;;;;7.03;1.57;;;12.90;99.90;;;;;;4991851;28;20206;-76
2023/09/27 02:41:52;;;;;;;6.95;1.38;;;;;;;;;;4991831;28;20219;-76
2023/09/27 02:44:18;;;;;;;9.48;1.80;;;12.90;99.90;;;;;;4973244;28;20225;-75
2023/09/27 02:46:44;;;;;;;8.52;1.75;;;12.90;99.90;;;;;;4978671;28;20176;-76
2023/09/27 02:49:10;;;;;;;7.43;1.30;;;13.00;99.90;;;;;;4982882;28;20180;-76
2023/09/27 02:51:37;;;;;;;7.25;1.60;;;13.10;99.90;;;;;;4972441;28;20184;-76
2023/09/27 02:54:03;;;;;;;10.35;2.15;;;12.90;99.90;;;;;;4972563;28;20180;-75
2023/09/27 02:56:29;;;;;;;7.43;1.95;;;;;;;;;;4972512;28;20537;-75
2023/09/27 02:58:55;;;;;;;11.27;1.97;;;;;;;;;;4971150;28;20179;-75
2023/09/27 03:01:21;;;;;;;9.27;1.60;;;;;;;;;;4979392;28;20543;-76
2023/09/27 03:03:46;;;;;;;7.30;1.60;;;13.10;99.90;;;;;;4976290;28;20233;-76
2023/09/27 03:06:15;;;;;;;12.98;2.20;;;13.10;99.90;;;;;;4972407;28;20635;-76
2023/09/27 03:08:44;;;;;;;9.40;2.00;;;12.90;99.90;;;;;;4972538;28;20176;-76
2023/09/27 03:11:10;;;;;;;9.15;1.73;;;12.90;99.90;;;;;;4972343;28;20259;-75
2023/09/27 03:13:38;;;;;;;11.43;1.83;;;12.90;99.90;;;;;;4972240;28;20184;-76
2023/09/27 03:16:04;;;;;;;13.07;2.08;;;13.00;99.90;;;;;;4972226;28;20191;-77
2023/09/27 03:18:33;;;;;;;10.70;2.05;;;13.10;99.90;;;;;;4972404;28;20183;-76
2023/09/27 03:20:59;;;;;;;8.30;1.65;;;13.00;99.90;;;;;;4972385;28;20171;-77
2023/09/27 03:23:28;;;;;;;9.43;1.92;;;13.30;99.90;;;;;;4972258;28;20218;-77
2023/09/27 03:25:58;;;;;;;8.87;1.83;;;13.30;99.90;;;;;;4972036;28;20242;-76
2023/09/27 03:28:23;;;;;;;9.47;1.77;;;13.20;99.90;;;;;;4972013;28;20184;-77
2023/09/27 03:30:49;;;;;;;9.45;2.17;;;13.20;99.90;;;;;;4973629;28;20278;-77
2023/09/27 03:33:15;;;;;;;9.00;1.93;;;13.10;99.90;;;;;;4986922;28;20205;-76
2023/09/27 03:35:41;;;;;;;9.07;1.95;;;13.10;99.90;;;;;;4985235;28;20258;-77
2023/09/27 03:38:07;;;;;;;11.80;2.47;;;13.10;99.90;;;;;;4990598;28;20191;-77
2023/09/27 03:40:33;;;;;;;9.70;2.30;;;13.10;99.90;;;;;;4986219;28;20534;-76
2023/09/27 03:42:59;;;;;;;7.70;1.73;;;13.10;99.90;;;;;;4972289;28;20215;-76
2023/09/27 03:45:25;;;;;;;10.33;1.97;;;13.30;99.90;;;;;;4974925;28;20175;-76
2023/09/27 03:47:51;;;;;;;11.00;2.80;;;13.60;99.90;;;;;;4980329;28;20175;-77
2023/09/27 03:50:17;;;;;;;12.07;2.75;;;13.50;99.90;;;;;;4991467;28;20175;-76
2023/09/27 03:52:43;;;;;;;12.35;3.00;;;13.40;99.90;;;;;;4976440;28;20179;-76
2023/09/27 03:55:10;;;;;;;12.32;2.47;;;13.30;99.90;;;;;;4972102;28;20634;-77
2023/09/27 03:57:36;;;;;;;11.45;2.40;;;13.40;99.90;;;;;;4971786;28;20164;-77
2023/09/27 04:00:06;;;;;;;10.73;2.78;;;;;;;;;;4971606;28;20583;-76
2023/09/27 04:02:33;;;;;;;6.80;2.67;;;13.50;99.90;;;;;;4972007;28;20643;-76
2023/09/27 04:04:58;;;;;;;9.47;3.00;;;13.50;99.90;;;;;;4985790;28;20664;-76
2023/09/27 04:07:24;;;;;;;6.88;2.72;;;13.80;99.90;;;;;;4991329;28;20183;-75
2023/09/27 04:09:50;;;;;;;11.02;3.03;;;13.60;99.90;;;;;;4991023;28;20221;-76
2023/09/27 04:12:15;;;;;;;10.75;2.70;;;13.70;99.90;;;;;;4991571;28;20179;-76
2023/09/27 04:14:41;;;;;;;11.20;3.05;;;13.70;99.90;;;;;;4991214;28;20635;-76
2023/09/27 04:17:07;;;;;;;12.32;3.28;;;13.70;99.90;;;;;;4991259;28;20187;-75
2023/09/27 04:19:33;;;;;;;10.50;2.88;;;13.60;99.90;;;;;;4991151;28;20584;-75
2023/09/27 04:21:59;;;;;;;11.15;3.63;;;13.70;99.90;;;;;;4991118;28;20178;-76
2023/09/27 04:24:26;;;;;;;11.40;3.67;;;13.80;99.90;;;;;;4994042;28;20361;-75
2023/09/27 04:26:53;;;;;;;8.15;3.10;;;13.80;99.90;;;;;;4995173;28;20179;-75
2023/09/27 04:29:20;;;;;;;10.25;3.20;;;13.80;99.90;;;;;;4993203;28;20175;-76
2023/09/27 04:31:45;;;;;;;9.93;3.35;;;13.80;99.90;;;;;;4994886;28;20592;-76
2023/09/27 04:34:11;;;;;;;9.02;3.22;;;13.90;99.90;;;;;;4993249;28;20710;-76
2023/09/27 04:36:37;;;;;;;7.05;3.00;;;13.70;99.90;;;;;;4993349;28;20182;-76
2023/09/27 04:39:11;;;;;;;7.85;3.05;;;13.70;99.90;;;;;;4994660;28;20178;-76
2023/09/27 04:41:36;;;;;;;8.63;2.90;;;13.90;99.90;;;;;;4994173;28;20219;-76
2023/09/27 04:44:02;;;;;;;9.82;3.15;;;13.70;99.90;;;;;;4994518;28;20215;-76
2023/09/27 04:46:28;;;;;;;8.63;3.25;;;13.80;99.90;;;;;;4989864;28;20183;-76
2023/09/27 04:48:53;;;;;;;6.07;2.70;;;13.90;99.90;;;;;;4992198;28;20183;-76
2023/09/27 04:51:19;;;;;;;8.77;2.80;;;13.70;99.90;;;;;;4994198;28;20662;-76
2023/09/27 04:53:45;;;;;;;9.10;2.88;;;13.80;99.90;;;;;;4987366;28;20187;-76
2023/09/27 04:56:11;;;;;;;5.88;2.50;;;14.00;99.90;;;;;;4974816;28;20176;-76
2023/09/27 04:58:43;;;;;;;8.18;2.88;;;13.80;99.90;;;;;;4983420;28;20716;-78
2023/09/27 05:01:11;;;;;;;8.07;3.17;;;13.80;99.90;;;;;;4979390;28;20259;-76
2023/09/27 05:03:37;;;;;;;9.38;3.70;;;12.50;99.90;;;;;;4984910;28;20279;-76
2023/09/27 05:06:04;;;;;;;7.95;3.22;;;13.80;99.90;;;;;;4991705;28;20194;-75
2023/09/27 05:08:29;;;;;;;10.45;3.67;;;13.80;99.90;;;;;;4991638;28;20178;-76
2023/09/27 05:10:56;;;;;;;8.10;3.77;;;13.80;99.90;;;;;;4986049;28;20182;-76
2023/09/27 05:13:22;;;;;;;9.20;3.78;;;13.80;99.90;;;;;;4974373;28;20176;-76
2023/09/27 05:15:48;;;;;;;7.03;3.35;;;13.80;99.90;;;;;;4974178;28;20172;-76
2023/09/27 05:18:14;;;;;;;10.03;3.67;;;13.70;99.90;;;;;;4974290;28;20186;-76
2023/09/27 05:20:39;;;;;;;8.55;3.58;;;13.70;99.90;;;;;;4991119;28;20262;-76
2023/09/27 05:23:05;;;;;;;7.30;3.60;;;13.70;99.90;;;;;;4987092;28;20678;-75
2023/09/27 05:25:31;;;;;;;9.57;3.77;;;13.70;99.90;;;;;;4974319;28;20178;-75
2023/09/27 05:27:57;;;;;;;7.28;3.10;;;13.80;99.90;;;;;;4975250;28;20180;-75
2023/09/27 05:30:22;;;;;;;10.10;3.85;;;13.70;99.90;;;;;;4993153;28;20592;-75
2023/09/27 05:32:48;;;;;;;8.40;3.30;;;13.70;99.90;;;;;;4993433;28;20589;-76
2023/09/27 05:35:14;;;;;;;9.77;3.47;;;13.70;99.90;;;;;;4992097;28;20175;-76
2023/09/27 05:37:43;;;;;;;9.43;3.27;;;13.80;99.90;;;;;;4992042;28;20176;-75
2023/09/27 05:40:10;;;;;;;9.30;2.73;;;13.90;99.90;;;;;;4991845;28;20183;-75
2023/09/27 05:42:37;;;;;;;6.47;2.85;;;13.90;99.90;;;;;;4993015;28;20235;-75
2023/09/27 05:45:04;;;;;;;8.32;3.00;;;13.90;99.90;;;;;;4993214;28;20194;-76
2023/09/27 05:47:30;;;;;;;10.45;3.50;;;;;;;;;;4993247;28;20186;-75
2023/09/27 05:49:57;;;;;;;5.05;2.72;;;14.10;99.90;;;;;;4993321;28;20178;-77
2023/09/27 05:52:22;;;;;;;9.25;2.30;;;14.00;99.90;;;;;;4993389;28;20179;-77
2023/09/27 05:54:51;;;;;;;6.38;2.20;;;14.10;99.90;;;;;;4993205;28;20163;-75
2023/09/27 05:57:17;;;;;;;8.30;2.70;;;14.00;99.90;;;;;;4992828;28;20689;-75
2023/09/27 05:59:44;;;;;;;7.90;2.58;;;14.10;99.90;;;;;;4992785;28;20309;-75
2023/09/27 06:02:16;;;;;;;7.90;2.13;;;14.10;99.90;;;;;;4992943;28;20168;-76
2023/09/27 06:04:46;;;;;;;5.32;1.95;;;14.10;99.90;;;;;;4992998;28;20286;-75
2023/09/27 06:07:13;;;;;;;8.65;2.40;;;14.10;99.90;;;;;;4992913;28;20189;-76
2023/09/27 06:09:43;;;;;;;6.75;2.47;;;14.10;99.90;;;;;;4991514;28;20210;-75
2023/09/27 06:12:12;;;;;;;8.02;2.30;;;14.30;99.90;;;;;;4992825;28;20645;-77
2023/09/27 06:14:38;;;;;;;9.60;2.45;;;14.20;99.90;;;;;;4992725;28;20266;-76
2023/09/27 06:17:05;;;;;;;9.93;3.00;;;14.20;99.90;;;;;;4993053;28;20214;-75
2023/09/27 06:19:32;;;;;;;6.70;2.28;;;14.20;99.90;;;;;;4992714;28;20245;-78
2023/09/27 06:21:58;;;;;;;8.45;1.83;;;14.30;99.90;;;;;;4990891;28;20167;-75
2023/09/27 06:24:26;;;;;;;7.18;2.25;;;14.30;99.90;;;;;;4991080;28;20226;-77
2023/09/27 06:26:52;;;;;;;7.88;2.50;;;14.30;99.90;;;;;;4992267;28;20194;-77
2023/09/27 06:29:19;;;;;;;5.78;2.20;;;14.30;99.90;;;;;;4992331;28;20179;-78
2023/09/27 06:31:49;;;;;;;7.40;1.80;;;14.60;99.90;;;;;;4994352;28;20265;-79
2023/09/27 06:34:15;;;;;;;12.95;2.80;;;14.60;99.90;;;;;;4983860;28;20183;-78
2023/09/27 06:36:42;;;;;;;8.63;2.35;;;14.40;99.90;;;;;;4973321;28;20200;-80
2023/09/27 06:39:12;;;;;;;11.07;2.10;;;14.40;99.90;;;;;;4988306;28;20183;-80
2023/09/27 06:41:39;;;;;;;7.38;1.83;;;14.40;99.90;;;;;;4992686;28;20219;-78
2023/09/27 06:44:06;;;;;;;7.93;2.28;;;14.50;99.90;;;;;;4984100;28;20219;-81
2023/09/27 06:46:33;;;;;;;11.27;2.65;;;14.40;99.90;;;;;;4993426;28;20249;-80
2023/09/27 06:48:59;;;;;;;5.78;2.10;;;14.60;99.90;;;;;;4986055;28;20298;-79
2023/09/27 06:51:24;;;;;;;10.55;2.45;;;14.60;99.90;;;;;;4990990;28;20176;-79
2023/09/27 06:53:50;;;;;;;5.85;1.98;;;14.80;99.90;;;;;;4993714;28;20542;-77
2023/09/27 06:56:15;;;;;;;6.10;1.90;;;14.70;99.90;;;;;;4974290;28;20178;-76
2023/09/27 06:58:41;;;;;;;8.57;2.20;;;14.80;99.90;;;;;;4977213;28;20180;-77
2023/09/27 07:01:07;;;;;;;10.70;2.40;;;14.90;99.90;;;;;;4987375;28;20701;-74
2023/09/27 07:03:36;;;;;;;9.27;2.63;;;14.90;99.90;;;;;;4990787;28;20206;-77
2023/09/27 07:06:02;;;;;;;10.40;2.40;;;14.90;99.90;;;;;;4971105;28;20172;-78
2023/09/27 07:08:28;;;;;;;7.32;2.35;;;15.00;99.90;;;;;;4972251;28;20572;-77
2023/09/27 07:10:54;;;;;;;9.35;2.35;;;15.10;99.90;;;;;;4972365;28;20171;-77
2023/09/27 07:13:19;;;;;;;11.38;2.25;;;17.90;99.90;;;;;;4972676;28;20263;-78
2023/09/27 07:15:46;;;;;;;6.88;2.47;;;15.00;99.90;;;;;;4972196;28;20230;-77
2023/09/27 07:18:12;;;;;;;13.18;3.05;;;15.10;99.90;;;;;;4990648;28;20180;-79
2023/09/27 07:20:40;;;;;;;15.98;3.30;;;15.20;99.90;;;;;;4989467;28;20269;-77
2023/09/27 07:23:08;;;;;;;14.82;3.58;;;15.30;99.90;;;;;;4981444;28;20687;-77
2023/09/27 07:25:37;;;;;;;10.55;3.10;;;15.30;99.90;;;;;;4989415;28;20176;-77
2023/09/27 07:28:04;;;;;;;13.98;3.33;;;15.40;99.90;;;;;;4991305;28;20191;-76
2023/09/27 07:30:35;;;;;;;11.52;3.10;;;15.40;99.90;;;;;;4989788;28;20199;-76
2023/09/27 07:33:10;;;;;;;12.25;2.90;;;15.60;99.90;;;;;;4976827;28;20235;-76
2023/09/27 07:35:43;;;;;;;15.30;3.13;;;15.40;99.90;;;;;;4973232;28;20590;-76
2023/09/27 07:38:10;;;;;;;11.90;3.65;;;15.60;99.90;;;;;;4991410;28;20195;-77
2023/09/27 07:40:36;;;;;;;13.40;3.72;;;15.60;99.90;;;;;;4979476;28;20206;-76
2023/09/27 07:43:02;;;;;;;8.85;2.90;;;;;;;;;;4971008;28;20730;-77
2023/09/27 07:45:31;;;;;;;12.52;2.80;;;15.80;99.90;;;;;;4984367;28;20183;-76
2023/09/27 07:47:57;;;;;;;13.27;2.58;;;15.80;99.90;;;;;;4988676;28;20222;-78
2023/09/27 07:50:27;;;;;;;10.85;2.58;;;16.00;99.90;;;;;;4988668;28;20207;-76
2023/09/27 07:52:57;;;;;;;11.73;3.00;;;15.90;99.90;;;;;;4991362;28;20270;-76
2023/09/27 07:55:23;;;;;;;14.57;3.13;;;16.10;99.90;;;;;;4990096;28;20175;-77
2023/09/27 07:57:52;;;;;;;14.63;3.28;;;15.90;99.90;;;;;;4979718;28;20181;-77
2023/09/27 08:00:19;;;;;;;13.02;3.05;;;16.00;99.90;;;;;;4993909;28;20182;-77
2023/09/27 08:02:50;;;;;;;10.75;2.92;;;16.00;99.90;;;;;;4984637;28;20238;-76
2023/09/27 08:05:16;;;;;;;14.80;2.85;;;16.20;99.90;;;;;;4993024;28;20179;-77
2023/09/27 08:07:44;;;;;;;13.45;3.25;;;16.20;99.90;;;;;;4993277;28;20179;-77
2023/09/27 08:10:10;;;;;;;11.48;2.97;;;16.20;99.90;;;;;;4992150;28;20206;-78
2023/09/27 08:12:38;;;;;;;14.43;2.90;;;16.10;99.90;;;;;;4976028;28;20184;-78
2023/09/27 08:15:05;;;;;;;11.82;2.45;;;16.30;99.90;;;;;;4974499;28;20547;-78
2023/09/27 08:17:32;;;;;;;14.35;2.75;;;16.50;99.90;;;;;;4977495;28;20175;-77
2023/09/27 08:19:58;;;;;;;13.38;3.17;;;16.50;99.90;;;;;;4993885;28;20202;-75
2023/09/27 08:22:24;;;;;;;14.60;2.67;;;16.70;99.90;;;;;;4993023;28;20708;-75
2023/09/27 08:24:50;;;;;;;12.10;3.10;;;16.50;99.90;;;;;;4992810;28;20179;-76
2023/09/27 08:27:17;;;;;;;15.18;2.58;;;16.60;99.90;;;;;;4992605;28;20182;-76
2023/09/27 08:29:43;;;;;;;12.98;3.00;;;16.50;99.90;;;;;;4993260;28;20324;-76
2023/09/27 08:32:08;;;;;;;13.48;2.50;;;16.70;99.90;;;;;;4977132;28;20726;-76
2023/09/27 08:34:35;;;;;;;17.10;2.55;;;17.00;99.90;;;;;;4989634;28;20176;-76
2023/09/27 08:37:01;;;;;;;14.68;2.92;;;16.80;99.90;;;;;;4993257;28;20179;-77
2023/09/27 08:39:27;;;;;;;9.30;2.50;;;16.90;99.90;;;;;;4993006;28;20193;-76
2023/09/27 08:41:56;;;;;;;12.02;2.45;;;16.90;99.90;;;;;;4952603;28;1124341;-76
2023/09/27 08:44:25;;;;;;;16.58;2.78;;;16.90;99.90;;;;;;4987849;28;20700;-76
2023/09/27 08:46:54;;;;;;;9.13;2.50;;;16.90;99.90;;;;;;4977375;28;20172;-76
2023/09/27 08:49:20;;;;;;;14.65;2.75;;;19.00;99.90;;;;;;4985184;28;20263;-78
2023/09/27 08:51:46;;;;;;;17.80;3.65;;;17.00;99.90;;;;;;4990182;28;20258;-76
2023/09/27 08:54:16;;;;;;;11.50;2.50;;;17.10;99.90;;;;;;4989610;28;20176;-79
2023/09/27 08:56:48;;;;;;;13.32;2.95;;;17.50;99.90;;;;;;4993557;28;20225;-77
2023/09/27 08:59:15;;;;;;;10.07;2.70;;;17.10;99.90;;;;;;4982856;28;20186;-78
2023/09/27 09:01:44;;;;;;;14.80;2.47;;;17.30;99.90;;;;;;4989235;28;20190;-77
2023/09/27 09:04:11;;;;;;;12.50;2.25;;;17.40;99.90;;;;;;4980035;28;20204;-77
2023/09/27 09:06:37;;;;;;;14.32;2.33;;;17.40;99.90;;;;;;4974616;28;20168;-79
2023/09/27 09:09:10;;;;;;;15.07;2.85;;;17.50;99.90;;;;;;4974051;28;20278;-76
2023/09/27 09:11:48;;;;;;;14.35;3.35;;;17.50;99.90;;;;;;4983558;28;20653;-77
2023/09/27 09:14:21;;;;;;;14.00;2.47;;;17.50;99.90;;;;;;4979405;28;20183;-76
2023/09/27 09:16:53;;;;;;;11.13;2.80;;;17.50;99.90;;;;;;4974836;28;20199;-76
2023/09/27 09:19:22;;;;;;;11.73;2.58;;;17.60;99.90;;;;;;4974606;28;20180;-75
2023/09/27 09:22:07;;;;;;;10.35;2.25;;;;;;;;;;4980622;28;20183;-74
2023/09/27 09:24:35;;;;;;;7.68;1.98;;;17.60;99.90;;;;;;4979941;28;20254;-75
2023/09/27 09:27:13;;;;;;;12.38;2.50;;;17.70;99.90;;;;;;4985716;28;20171;-75
2023/09/27 09:29:49;;;;;;;9.77;1.75;;;18.30;99.90;;;;;;4990226;28;20190;-75
2023/09/27 09:32:22;;;;;;;8.23;2.40;;;18.00;99.90;;;;;;4991470;28;20171;-77
2023/09/27 09:34:49;;;;;;;8.75;2.13;;;18.20;99.90;;;;;;4993305;28;20179;-74
2023/09/27 09:37:20;;;;;;;9.18;2.22;;;18.20;99.90;;;;;;4993385;28;20649;-76
2023/09/27 09:39:47;;;;;;;9.82;2.50;;;18.30;99.90;;;;;;4989262;28;20205;-77
2023/09/27 09:42:32;;;;;;;8.32;2.33;;;18.30;99.90;;;;;;4995870;28;20310;-77
2023/09/27 09:45:05;;;;;;;8.18;2.10;;;18.40;99.90;;;;;;5010663;28;20189;-78
2023/09/27 09:47:36;;;;;;;8.13;1.85;;;18.50;99.90;;;;;;5004457;28;20190;-80
2023/09/27 09:50:06;;;;;;;10.13;2.42;;;18.70;99.90;;;;;;4993180;28;20181;-76
2023/09/27 09:52:35;;;;;;;10.93;2.05;;;18.70;99.90;;;;;;5007450;28;20217;-77
2023/09/27 09:55:03;;;;;;;11.40;2.13;;;18.40;99.90;;;;;;5012499;28;20249;-75
2023/09/27 09:57:35;;;;;;;7.70;1.38;;;18.50;99.90;;;;;;5007569;28;20206;-76
2023/09/27 10:00:17;;;;;;;9.27;1.88;;;18.40;99.90;;;;;;4993199;28;20262;-76
2023/09/27 10:02:49;;;;;;;11.85;2.83;;;18.50;99.90;;;;;;4993043;28;20187;-74
2023/09/27 10:05:19;;;;;;;8.60;1.67;;;18.40;99.90;;;;;;4993049;28;20191;-74
2023/09/27 10:07:49;;;;;;;11.40;1.73;;;18.60;99.90;;;;;;4992908;28;20222;-77
2023/09/27 10:10:19;;;;;;;11.50;2.30;;;18.60;99.90;;;;;;4987716;28;20179;-77
2023/09/27 10:12:47;;;;;;;9.35;2.08;;;18.60;99.90;;;;;;4973407;28;20207;-77
2023/09/27 10:15:18;;;;;;;8.15;2.28;;;18.50;99.90;;;;;;4981009;28;20630;-77
2023/09/27 10:17:45;;;;;;;9.10;1.98;;;18.60;99.90;;;;;;4991205;28;20189;-76
2023/09/27 10:20:17;;;;;;;12.10;1.98;;;18.50;99.90;;;;;;5003539;28;20179;-77
2023/09/27 10:22:46;;;;;;;8.88;2.05;;;18.50;99.90;;;;;;4985985;28;20242;-77
2023/09/27 10:25:27;;;;;;;6.93;1.75;;;19.10;99.90;;;;;;4973319;28;20181;-77
2023/09/27 10:28:01;;;;;;;6.97;1.85;;;18.30;99.90;;;;;;4973547;28;20657;-76
2023/09/27 10:30:48;;;;;;;9.25;2.17;;;18.30;99.90;;;;;;4982092;28;20174;-76
2023/09/27 10:33:16;;;;;;;9.13;2.13;;;19.50;99.90;;;;;;4991646;28;20690;-75
2023/09/27 10:35:44;;;;;;;8.55;1.60;;;18.20;99.90;;;;;;4990745;28;20665;-76
2023/09/27 10:38:10;;;;;;;12.27;2.10;;;18.50;99.90;;;;;;4989944;28;20529;-76
2023/09/27 10:40:44;;;;;;;6.30;1.42;;;18.60;99.90;;;;;;4992023;28;20175;-76
2023/09/27 10:43:35;;;;;;;11.35;2.03;;;18.00;99.90;;;;;;4990855;28;20568;-77
2023/09/27 10:46:04;;;;;;;8.38;1.92;;;;;;;;;;4983820;28;20242;-77
2023/09/27 10:48:37;;;;;;;12.68;2.40;;;18.50;99.90;;;;;;4990205;28;20221;-77
2023/09/27 10:51:03;;;;;;;11.52;2.05;;;18.50;99.90;;;;;;4989766;28;20171;-76
2023/09/27 10:53:32;;;;;;;12.32;2.17;;;18.60;99.90;;;;;;4977314;28;20195;-78
2023/09/27 10:55:58;;;;;;;5.25;1.92;;;18.30;99.90;;;;;;4974435;28;20211;-76
2023/09/27 10:58:24;;;;;;;9.50;2.22;;;18.50;99.90;;;;;;4972530;28;20678;-77
2023/09/27 11:00:57;;;;;;;14.02;2.13;;;18.50;99.90;;;;;;4972582;28;20667;-75
2023/09/27 11:03:23;;;;;;;4.53;1.50;;;18.30;99.90;;;;;;4970966;28;20215;-76
2023/09/27 11:05:50;;;;;;;10.25;2.35;;;18.50;99.90;;;;;;4972282;28;20691;-76
2023/09/27 11:08:24;;;;;;;12.07;1.95;;;18.40;99.90;;;;;;4972561;28;20186;-75
2023/09/27 11:10:52;;;;;;;12.02;2.60;;;18.60;99.90;;;;;;4973895;28;20197;-76
2023/09/27 11:13:19;;;;;;;7.32;1.80;;;18.40;99.90;;;;;;4971043;28;20175;-75
2023/09/27 11:15:44;;;;;;;11.73;2.28;;;18.50;99.90;;;;;;4972391;28;20194;-76
2023/09/27 11:18:10;;;;;;;6.95;1.60;;;18.40;99.90;;;;;;4970922;28;20651;-77
2023/09/27 11:20:37;;;;;;;7.28;2.00;;;18.40;99.90;;;;;;4972387;28;20254;-76
2023/09/27 11:23:03;;;;;;;7.97;1.95;;;18.80;99.90;;;;;;4972050;28;20258;-77
2023/09/27 11:25:31;;;;;;;9.70;1.98;;;18.60;99.90;;;;;;4972122;28;20610;-77
2023/09/27 11:27:57;;;;;;;12.48;2.25;;;18.50;99.90;;;;;;4983573;28;20307;-77
2023/09/27 11:30:30;;;;;;;7.72;2.15;;;18.80;99.90;;;;;;4973923;28;20648;-77
2023/09/27 11:33:01;;;;;;;6.82;1.70;;;18.70;99.90;;;;;;4990456;28;20201;-77
2023/09/27 11:35:27;;;;;;;7.93;2.25;;;18.70;99.90;;;;;;4991160;28;20238;-77
2023/09/27 11:38:12;;;;;;;6.75;1.88;;;19.00;99.90;;;;;;4990203;28;20183;-77
2023/09/27 11:40:40;;;;;;;11.52;2.17;;;18.80;99.90;;;;;;4991231;28;20175;-78
2023/09/27 11:43:06;;;;;;;10.32;2.15;;;18.80;99.90;;;;;;4990886;28;20265;-76
2023/09/27 11:45:45;;;;;;;6.47;2.13;;;18.90;99.90;;;;;;4991076;28;20176;-75
2023/09/27 11:48:12;;;;;;;11.75;2.35;;;19.00;99.90;;;;;;4990735;28;20183;-76
2023/09/27 11:50:37;;;;;;;10.13;2.13;;;19.00;99.90;;;;;;4990108;28;20202;-76
2023/09/27 11:53:04;;;;;;;10.75;2.63;;;19.30;99.90;;;;;;4990963;28;20905;-77
2023/09/27 11:55:30;;;;;;;9.07;2.53;;;19.00;99.90;;;;;;4991893;28;20229;-78
2023/09/27 11:57:59;;;;;;;12.55;2.65;;;20.50;99.90;;;;;;4993050;28;20547;-76
2023/09/27 12:00:25;;;;;;;12.32;2.28;;;19.10;99.90;;;;;;4992141;28;20168;-76
2023/09/27 12:02:52;;;;;;;12.80;2.50;;;19.20;99.90;;;;;;4987723;28;20688;-77
2023/09/27 12:05:18;;;;;;;11.10;2.28;;;19.20;99.90;;;;;;4992532;28;20175;-76
2023/09/27 12:07:44;;;;;;;12.35;2.28;;;19.20;99.90;;;;;;4991166;28;20168;-76
2023/09/27 12:10:10;;;;;;;6.85;2.17;;;19.00;99.90;;;;;;4989426;28;20681;-76
2023/09/27 12:12:37;;;;;;;8.65;2.28;;;19.30;99.90;;;;;;4990681;28;20176;-77
2023/09/27 12:15:03;;;;;;;9.45;2.00;;;19.10;99.90;;;;;;4990772;28;20266;-78
2023/09/27 12:17:30;;;;;;;8.05;2.05;;;19.20;99.90;;;;;;4990851;28;20245;-77
2023/09/27 12:19:56;;;;;;;8.07;2.05;;;19.40;99.90;;;;;;4991048;28;20677;-76
2023/09/27 12:22:24;;;;;;;5.85;1.50;;;19.00;99.90;;;;;;4990910;28;20190;-77
2023/09/27 12:24:50;;;;;;;9.93;2.28;;;19.00;99.90;;;;;;4991096;28;20218;-76
2023/09/27 12:27:16;;;;;;;10.73;2.25;;;19.10;99.90;;;;;;4991148;28;20167;-77
2023/09/27 12:29:42;;;;;;;10.40;2.17;;;19.00;99.90;;;;;;4990762;28;20182;-77
2023/09/27 12:32:07;;;;;;;8.35;2.20;;;18.60;99.90;;;;;;4991118;28;20175;-76
2023/09/27 12:34:34;;;;;;;10.60;2.40;;;;;;;;;;4991153;28;20708;-76
2023/09/27 12:37:00;;;;;;;7.78;2.30;;;;;;;;;;4984162;28;20263;-78
2023/09/27 12:39:25;;;;;;;11.77;2.45;;;20.20;99.90;;;;;;4988994;28;20213;-80
2023/09/27 12:41:51;;;;;;;9.75;2.03;;;;;;;;;;4992541;28;20694;-80
2023/09/27 12:44:18;;;;;;;10.82;2.35;;;18.30;99.90;;;;;;4991016;28;20207;-79
2023/09/27 12:46:44;;;;;;;7.38;1.83;;;18.40;99.90;;;;;;4993726;28;20167;-78
2023/09/27 12:49:09;;;;;;;10.05;2.10;;;18.10;99.90;;;;;;4993588;28;20672;-80